Time;durP1;ratioP1;P1;durP2;ratioP2;P2;SDS_P1;SDS_P2;PMS_P1;PMS_P2;Temp;Humidity;BMP_temperature;BMP_pressure;BME280_temperature;BME280_humidity;BME280_pressure;Samples;Min_cycle;Max_cycle;Signal;HPM_P1;HPM_P2
2023/03/06 00:00:57;;;;;;;28.15;12.73;;;2.70;99.90;;;;;;5160456;27;20109;-72
2023/03/06 00:03:26;;;;;;;27.30;13.10;;;2.70;99.90;;;;;;5142611;27;20031;-71
2023/03/06 00:05:56;;;;;;;21.53;12.20;;;2.70;99.90;;;;;;5142111;27;20072;-74
2023/03/06 00:08:22;;;;;;;25.92;13.18;;;2.70;99.90;;;;;;5144727;27;20428;-73
2023/03/06 00:10:48;;;;;;;29.70;14.95;;;2.70;99.90;;;;;;5148642;27;20038;-73
2023/03/06 00:13:15;;;;;;;29.13;14.10;;;2.80;99.90;;;;;;5164125;27;20018;-72
2023/03/06 00:15:41;;;;;;;31.17;13.68;;;2.80;99.90;;;;;;5163070;27;20372;-74
2023/03/06 00:18:07;;;;;;;28.80;14.10;;;2.80;99.90;;;;;;5150353;27;20023;-70
2023/03/06 00:20:35;;;;;;;27.73;14.48;;;2.90;99.90;;;;;;5155315;27;20031;-72
2023/03/06 00:23:00;;;;;;;31.60;14.18;;;2.90;99.90;;;;;;5155147;27;20019;-73
2023/03/06 00:25:26;;;;;;;29.58;13.55;;;2.80;99.90;;;;;;5153556;27;20021;-72
2023/03/06 00:27:52;;;;;;;32.08;14.52;;;2.80;99.90;;;;;;5154695;27;20037;-72
2023/03/06 00:30:23;;;;;;;26.80;13.70;;;2.80;99.90;;;;;;5153552;27;20380;-72
2023/03/06 00:32:49;;;;;;;29.35;13.98;;;2.80;99.90;;;;;;5154813;27;20022;-72
2023/03/06 00:35:15;;;;;;;25.92;13.73;;;2.80;99.90;;;;;;5147996;27;20034;-72
2023/03/06 00:37:41;;;;;;;27.48;14.00;;;2.70;99.90;;;;;;5154700;27;20354;-72
2023/03/06 00:40:10;;;;;;;29.63;14.65;;;2.80;99.90;;;;;;5153888;27;20070;-70
2023/03/06 00:42:36;;;;;;;31.35;13.88;;;2.80;99.90;;;;;;5154526;27;20052;-73
2023/03/06 00:45:01;;;;;;;29.50;14.48;;;2.70;99.90;;;;;;5146569;27;20461;-72
2023/03/06 00:47:27;;;;;;;30.98;14.23;;;2.80;99.90;;;;;;5132940;27;20030;-72
2023/03/06 00:49:53;;;;;;;29.05;14.00;;;2.70;99.90;;;;;;5133307;27;20030;-72
2023/03/06 00:52:18;;;;;;;27.27;13.45;;;2.70;99.90;;;;;;5128661;27;20177;-71
2023/03/06 00:54:44;;;;;;;28.08;13.40;;;2.70;99.90;;;;;;5132921;27;20465;-73
2023/03/06 00:57:09;;;;;;;28.60;14.65;;;2.60;99.90;;;;;;5133030;27;20027;-70
2023/03/06 00:59:35;;;;;;;29.13;14.23;;;2.60;99.90;;;;;;5133076;27;20521;-72
2023/03/06 01:02:01;;;;;;;32.30;14.98;;;2.60;99.90;;;;;;5115194;27;20072;-73
2023/03/06 01:04:26;;;;;;;28.35;13.80;;;2.60;99.90;;;;;;5132064;27;20579;-71
2023/03/06 01:06:52;;;;;;;28.52;14.10;;;2.60;99.90;;;;;;5133220;27;20025;-72
2023/03/06 01:09:18;;;;;;;27.83;14.05;;;2.50;99.90;;;;;;5126723;27;20027;-71
2023/03/06 01:11:43;;;;;;;24.92;13.77;;;2.50;99.90;;;;;;5133127;27;20027;-72
2023/03/06 01:14:09;;;;;;;25.67;13.43;;;2.50;99.90;;;;;;5132305;27;20110;-71
2023/03/06 01:16:34;;;;;;;26.75;13.48;;;2.50;99.90;;;;;;5132669;27;20485;-72
2023/03/06 01:19:00;;;;;;;26.05;13.75;;;2.50;99.90;;;;;;5133098;27;20457;-73
2023/03/06 01:21:26;;;;;;;27.33;14.30;;;2.50;99.90;;;;;;5131912;27;20606;-72
2023/03/06 01:23:54;;;;;;;29.50;14.48;;;;;;;;;;5120368;27;20032;-72
2023/03/06 01:26:20;;;;;;;25.25;14.35;;;;;;;;;;5126810;27;20556;-71
2023/03/06 01:28:46;;;;;;;28.13;13.63;;;2.50;99.90;;;;;;5132838;27;20516;-73
2023/03/06 01:31:11;;;;;;;30.50;13.73;;;2.40;99.90;;;;;;5130802;27;20043;-71
2023/03/06 01:33:37;;;;;;;26.60;13.88;;;2.40;99.90;;;;;;5132845;27;20027;-72
2023/03/06 01:36:08;;;;;;;25.42;12.75;;;2.30;99.90;;;;;;5132487;27;20030;-72
2023/03/06 01:38:35;;;;;;;25.85;13.90;;;2.30;99.90;;;;;;5132638;27;20023;-73
2023/03/06 01:41:02;;;;;;;29.25;13.52;;;2.30;99.90;;;;;;5127604;27;20031;-73
2023/03/06 01:43:29;;;;;;;26.48;14.60;;;2.30;99.90;;;;;;5131920;27;20062;-72
2023/03/06 01:46:40;;;;;;;25.48;13.23;;;2.20;99.90;;;;;;5131861;27;20059;-72
2023/03/06 01:49:17;;;;;;;25.30;13.43;;;2.20;99.90;;;;;;5132395;27;20073;-71
2023/03/06 01:51:46;;;;;;;28.40;14.93;;;2.20;99.90;;;;;;5132530;27;20015;-72
2023/03/06 01:54:17;;;;;;;27.40;14.07;;;2.30;99.90;;;;;;5131014;27;20445;-71
2023/03/06 01:56:45;;;;;;;27.63;13.15;;;2.20;99.90;;;;;;5130955;27;20033;-72
2023/03/06 01:59:11;;;;;;;30.98;14.38;;;2.20;99.90;;;;;;5129963;27;20062;-71
2023/03/06 02:01:38;;;;;;;28.45;14.13;;;2.20;99.90;;;;;;5132536;27;20399;-72
2023/03/06 02:04:05;;;;;;;27.70;14.38;;;2.20;99.90;;;;;;5132285;27;20445;-72
2023/03/06 02:06:36;;;;;;;29.25;14.32;;;2.30;99.90;;;;;;5131287;27;20027;-72
2023/03/06 02:09:03;;;;;;;27.67;13.32;;;2.30;99.90;;;;;;5132495;27;20024;-73
2023/03/06 02:11:29;;;;;;;25.60;12.85;;;2.30;99.90;;;;;;5130781;28;20098;-72
2023/03/06 02:13:55;;;;;;;24.05;13.25;;;2.30;99.90;;;;;;5126256;28;20464;-71
2023/03/06 02:16:26;;;;;;;28.85;13.70;;;2.20;99.90;;;;;;5131289;28;20030;-71
2023/03/06 02:18:53;;;;;;;24.17;12.82;;;2.20;99.90;;;;;;5132549;28;20019;-72
2023/03/06 02:21:29;;;;;;;27.10;13.60;;;2.20;99.90;;;;;;5130895;28;20537;-72
2023/03/06 02:24:19;;;;;;;24.25;12.52;;;2.20;99.90;;;;;;5120193;28;20032;-73
2023/03/06 02:26:46;;;;;;;25.45;12.57;;;2.20;99.90;;;;;;5112067;28;20072;-73
2023/03/06 02:29:17;;;;;;;22.80;11.80;;;2.20;99.90;;;;;;5110535;28;20031;-70
2023/03/06 02:31:42;;;;;;;24.65;13.02;;;2.10;99.90;;;;;;5123110;28;20039;-73
2023/03/06 02:34:14;;;;;;;23.95;13.13;;;2.10;99.90;;;;;;5131786;28;20362;-71
2023/03/06 02:36:49;;;;;;;25.27;13.15;;;2.10;99.90;;;;;;5132241;28;20027;-71
2023/03/06 02:39:17;;;;;;;28.65;14.40;;;2.10;99.90;;;;;;5130798;28;20035;-71
2023/03/06 02:41:42;;;;;;;24.60;12.75;;;2.10;99.90;;;;;;5132365;27;20031;-72
2023/03/06 02:44:08;;;;;;;23.13;12.32;;;2.10;99.90;;;;;;5135529;27;20492;-70
2023/03/06 02:46:34;;;;;;;25.42;12.75;;;2.10;99.90;;;;;;5135149;27;20051;-72
2023/03/06 02:48:59;;;;;;;25.92;13.07;;;2.10;99.90;;;;;;5130276;27;20068;-72
2023/03/06 02:51:25;;;;;;;21.45;12.18;;;2.10;99.90;;;;;;5134634;27;20837;-72
2023/03/06 02:53:50;;;;;;;24.85;12.40;;;2.10;99.90;;;;;;5136440;27;20136;-73
2023/03/06 02:56:16;;;;;;;25.48;13.07;;;2.10;99.90;;;;;;5134901;27;20023;-73
2023/03/06 02:58:42;;;;;;;25.90;13.25;;;2.00;99.90;;;;;;5136317;27;20465;-73
2023/03/06 03:01:08;;;;;;;23.50;12.77;;;2.00;99.90;;;;;;5135082;27;20349;-70
2023/03/06 03:03:33;;;;;;;22.60;12.18;;;2.00;99.90;;;;;;5135814;27;20023;-72
2023/03/06 03:05:59;;;;;;;24.23;11.75;;;2.00;99.90;;;;;;5127423;27;20039;-72
2023/03/06 03:08:27;;;;;;;21.65;11.80;;;1.90;99.90;;;;;;5114628;28;20034;-72
2023/03/06 03:10:53;;;;;;;23.10;11.57;;;1.90;99.90;;;;;;5114536;28;20106;-72
2023/03/06 03:13:19;;;;;;;27.95;13.88;;;1.90;99.90;;;;;;5113916;28;20030;-72
2023/03/06 03:15:45;;;;;;;28.58;13.13;;;1.90;99.90;;;;;;5114671;28;20015;-72
2023/03/06 03:18:11;;;;;;;26.92;13.57;;;1.90;99.90;;;;;;5114332;28;20070;-70
2023/03/06 03:20:40;;;;;;;24.05;12.90;;;1.90;99.90;;;;;;5114345;28;20032;-72
2023/03/06 03:23:06;;;;;;;25.65;13.50;;;1.90;99.90;;;;;;5117356;27;20031;-70
2023/03/06 03:25:31;;;;;;;24.92;12.88;;;1.90;99.90;;;;;;5116843;27;20101;-72
2023/03/06 03:27:57;;;;;;;25.75;13.43;;;1.90;99.90;;;;;;5115043;28;20058;-72
2023/03/06 03:30:22;;;;;;;25.08;12.38;;;1.90;99.90;;;;;;5132189;27;20039;-72
2023/03/06 03:32:48;;;;;;;20.70;11.35;;;1.90;99.90;;;;;;5135825;27;20031;-72
2023/03/06 03:35:14;;;;;;;23.95;11.93;;;1.90;99.90;;;;;;5133996;27;20099;-72
2023/03/06 03:37:39;;;;;;;24.33;12.10;;;1.90;99.90;;;;;;5130791;27;20140;-72
2023/03/06 03:40:06;;;;;;;23.42;11.95;;;1.90;99.90;;;;;;5115431;27;20039;-73
2023/03/06 03:42:32;;;;;;;24.83;11.77;;;1.90;99.90;;;;;;5114670;27;20059;-73
2023/03/06 03:44:58;;;;;;;20.15;12.43;;;1.80;99.90;;;;;;5120257;27;20078;-73
2023/03/06 03:47:23;;;;;;;25.27;12.20;;;1.80;99.90;;;;;;5134396;27;20234;-73
2023/03/06 03:49:49;;;;;;;23.55;12.00;;;1.80;99.90;;;;;;5134655;27;20027;-73
2023/03/06 03:52:14;;;;;;;24.15;12.45;;;1.80;99.90;;;;;;5134195;27;20027;-73
2023/03/06 03:54:40;;;;;;;21.23;12.05;;;1.90;99.90;;;;;;5133280;27;20357;-73
2023/03/06 03:57:06;;;;;;;19.42;11.73;;;1.90;99.90;;;;;;5128874;27;20023;-71
2023/03/06 03:59:31;;;;;;;22.30;11.52;;;1.90;99.90;;;;;;5133957;27;20046;-73
2023/03/06 04:01:58;;;;;;;23.90;12.38;;;1.90;99.90;;;;;;5134720;27;20027;-73
2023/03/06 04:04:23;;;;;;;21.35;12.10;;;1.90;99.90;;;;;;5133686;27;20076;-73
2023/03/06 04:06:49;;;;;;;22.33;12.25;;;1.90;99.90;;;;;;5134859;27;20035;-73
2023/03/06 04:09:15;;;;;;;20.13;11.18;;;1.90;99.90;;;;;;5133624;27;20027;-71
2023/03/06 04:11:40;;;;;;;20.60;11.85;;;1.90;99.90;;;;;;5134765;27;20047;-72
2023/03/06 04:14:07;;;;;;;17.70;10.73;;;1.90;99.90;;;;;;5128075;27;20102;-71
2023/03/06 04:16:32;;;;;;;21.95;11.05;;;1.90;99.90;;;;;;5133771;27;20068;-73
2023/03/06 04:18:58;;;;;;;21.83;10.73;;;1.90;99.90;;;;;;5134556;27;20023;-73
2023/03/06 04:21:24;;;;;;;18.30;11.32;;;1.90;99.90;;;;;;5133011;27;20476;-72
2023/03/06 04:23:49;;;;;;;19.65;10.38;;;1.90;99.90;;;;;;5134298;27;20038;-71
2023/03/06 04:26:15;;;;;;;21.42;11.27;;;1.90;99.90;;;;;;5133197;27;20023;-71
2023/03/06 04:28:40;;;;;;;23.42;12.65;;;1.90;99.90;;;;;;5133779;27;20027;-70
2023/03/06 04:31:06;;;;;;;23.52;12.57;;;1.90;99.90;;;;;;5129229;27;20031;-70
2023/03/06 04:33:32;;;;;;;19.15;11.07;;;1.90;99.90;;;;;;5133415;27;20034;-72
2023/03/06 04:35:57;;;;;;;25.00;12.65;;;1.90;99.90;;;;;;5133575;27;20027;-72
2023/03/06 04:38:23;;;;;;;23.25;12.00;;;1.90;99.90;;;;;;5133398;27;20027;-72
2023/03/06 04:40:48;;;;;;;21.23;11.88;;;1.90;99.90;;;;;;5133618;27;20427;-72
2023/03/06 04:43:14;;;;;;;23.77;11.98;;;2.00;99.90;;;;;;5133181;27;20030;-71
2023/03/06 04:45:40;;;;;;;22.63;12.48;;;2.00;99.90;;;;;;5129384;27;20039;-72
2023/03/06 04:48:05;;;;;;;24.45;12.50;;;2.00;99.90;;;;;;5133291;27;20054;-72
2023/03/06 04:50:31;;;;;;;23.50;11.82;;;2.00;99.90;;;;;;5132512;27;20059;-72
2023/03/06 04:53:01;;;;;;;20.83;10.50;;;2.00;99.90;;;;;;5134037;27;20027;-72
2023/03/06 04:55:27;;;;;;;20.70;11.43;;;2.00;99.90;;;;;;5132542;27;20090;-72
2023/03/06 04:57:52;;;;;;;22.98;11.52;;;2.00;99.90;;;;;;5133782;27;20066;-71
2023/03/06 05:00:28;;;;;;;22.88;12.40;;;2.00;99.90;;;;;;5132141;27;20481;-70
2023/03/06 05:02:53;;;;;;;20.80;12.57;;;2.00;99.90;;;;;;5121747;27;20019;-73
2023/03/06 05:05:19;;;;;;;19.02;11.18;;;2.00;99.90;;;;;;5111322;28;20027;-71
2023/03/06 05:07:44;;;;;;;17.70;10.98;;;2.00;99.90;;;;;;5113021;28;20433;-71
2023/03/06 05:10:12;;;;;;;19.58;11.15;;;2.00;99.90;;;;;;5111669;28;20027;-71
2023/03/06 05:12:38;;;;;;;22.45;11.25;;;2.00;99.90;;;;;;5112832;28;20085;-72
2023/03/06 05:15:05;;;;;;;17.63;9.77;;;2.00;99.90;;;;;;5111844;28;20032;-72
2023/03/06 05:17:31;;;;;;;18.17;10.07;;;1.90;99.90;;;;;;5093678;28;20027;-72
2023/03/06 05:19:56;;;;;;;16.08;9.95;;;2.00;99.90;;;;;;5126347;27;20400;-72
2023/03/06 05:22:22;;;;;;;20.25;10.75;;;2.00;99.90;;;;;;5113968;27;20029;-71
2023/03/06 05:24:47;;;;;;;16.20;9.35;;;2.00;99.90;;;;;;5112629;27;20043;-71
2023/03/06 05:27:13;;;;;;;19.05;10.13;;;2.00;99.90;;;;;;5111727;28;20390;-72
2023/03/06 05:29:39;;;;;;;15.98;9.48;;;2.00;99.90;;;;;;5111984;28;20028;-73
2023/03/06 05:32:04;;;;;;;19.73;10.23;;;2.00;99.90;;;;;;5112464;28;20035;-72
2023/03/06 05:34:30;;;;;;;18.02;10.25;;;2.00;99.90;;;;;;5111440;28;20024;-73
2023/03/06 05:36:55;;;;;;;16.63;9.07;;;2.00;99.90;;;;;;5114244;27;22979;-74
2023/03/06 05:39:21;;;;;;;19.33;10.32;;;2.00;99.90;;;;;;5111824;27;20088;-73
2023/03/06 05:41:47;;;;;;;19.38;9.60;;;1.90;99.90;;;;;;5112487;28;20024;-73
2023/03/06 05:44:12;;;;;;;17.60;9.77;;;2.00;99.90;;;;;;5110905;28;20020;-72
2023/03/06 05:46:38;;;;;;;18.83;10.55;;;2.00;99.90;;;;;;5132239;27;20047;-72
2023/03/06 05:49:04;;;;;;;20.85;10.45;;;2.00;99.90;;;;;;5132661;27;20035;-73
2023/03/06 05:51:29;;;;;;;17.70;9.30;;;1.90;99.90;;;;;;5131698;27;20617;-72
2023/03/06 05:53:55;;;;;;;19.48;10.30;;;1.90;99.90;;;;;;5132159;27;20027;-71
2023/03/06 05:56:21;;;;;;;20.17;10.68;;;1.90;99.90;;;;;;5125401;27;20370;-72
2023/03/06 05:58:47;;;;;;;17.10;9.27;;;1.90;99.90;;;;;;5131959;27;20021;-72
2023/03/06 06:01:16;;;;;;;17.20;9.38;;;1.90;99.90;;;;;;5127702;27;20423;-72
2023/03/06 06:03:42;;;;;;;20.13;9.93;;;1.90;99.90;;;;;;5132435;27;20068;-73
2023/03/06 06:06:10;;;;;;;17.17;9.05;;;2.00;99.90;;;;;;5131681;27;20055;-71
2023/03/06 06:08:35;;;;;;;19.98;10.65;;;2.00;99.90;;;;;;5132399;27;20075;-73
2023/03/06 06:11:03;;;;;;;22.25;10.65;;;2.00;99.90;;;;;;5131072;28;20023;-73
2023/03/06 06:13:29;;;;;;;19.35;9.60;;;2.00;99.90;;;;;;5126196;27;20019;-74
2023/03/06 06:15:54;;;;;;;18.23;9.68;;;2.00;99.90;;;;;;5130047;27;20068;-72
2023/03/06 06:18:20;;;;;;;15.55;9.23;;;2.10;99.90;;;;;;5134962;27;20169;-73
2023/03/06 06:20:46;;;;;;;17.27;9.27;;;2.10;99.90;;;;;;5136300;27;20035;-73
2023/03/06 06:23:12;;;;;;;17.65;9.55;;;2.10;99.90;;;;;;5136013;27;20027;-72
2023/03/06 06:25:37;;;;;;;21.15;10.27;;;2.20;99.90;;;;;;5135915;27;20385;-73
2023/03/06 06:28:04;;;;;;;17.23;9.75;;;2.20;99.90;;;;;;5135997;27;20035;-76
2023/03/06 06:30:31;;;;;;;16.05;9.20;;;2.20;99.90;;;;;;5129452;27;20384;-79
2023/03/06 06:32:57;;;;;;;22.08;10.43;;;2.20;99.90;;;;;;5132187;27;20377;-82
2023/03/06 06:35:22;;;;;;;19.58;10.48;;;2.30;99.90;;;;;;5135403;27;20026;-77
2023/03/06 06:37:48;;;;;;;17.65;10.20;;;2.40;99.90;;;;;;5136573;27;20101;-75
2023/03/06 06:40:14;;;;;;;17.40;9.38;;;2.40;99.90;;;;;;5135149;27;20039;-72
2023/03/06 06:42:40;;;;;;;18.75;10.15;;;2.40;99.90;;;;;;5136387;27;20028;-71
2023/03/06 06:45:08;;;;;;;18.73;10.02;;;2.50;99.90;;;;;;5135231;27;20047;-73
2023/03/06 06:47:37;;;;;;;18.13;9.70;;;2.50;99.90;;;;;;5130443;27;20118;-82
2023/03/06 06:50:02;;;;;;;18.98;10.15;;;2.60;99.90;;;;;;5136572;27;20122;-73
2023/03/06 06:52:28;;;;;;;21.17;9.35;;;2.70;99.90;;;;;;5123461;27;20110;-74
2023/03/06 06:54:54;;;;;;;17.17;9.65;;;2.80;99.90;;;;;;5130406;27;20059;-70
2023/03/06 06:57:19;;;;;;;17.30;9.63;;;3.00;99.90;;;;;;5122835;27;20093;-78
2023/03/06 06:59:45;;;;;;;15.98;8.65;;;3.00;99.90;;;;;;5126264;27;20027;-72
2023/03/06 07:02:14;;;;;;;15.95;9.38;;;3.10;99.90;;;;;;5124445;27;20028;-72
2023/03/06 07:04:40;;;;;;;21.25;10.18;;;3.20;99.90;;;;;;5124111;27;20076;-73
2023/03/06 07:07:05;;;;;;;16.38;9.57;;;3.30;99.90;;;;;;5123912;27;20024;-74
2023/03/06 07:09:31;;;;;;;18.40;10.30;;;3.40;99.90;;;;;;5124069;27;20098;-74
2023/03/06 07:11:57;;;;;;;18.15;10.50;;;3.40;99.90;;;;;;5125697;27;20028;-75
2023/03/06 07:14:23;;;;;;;15.02;8.77;;;3.30;99.90;;;;;;5122227;27;20016;-74
2023/03/06 07:16:48;;;;;;;15.05;9.05;;;3.40;99.90;;;;;;5125672;27;20030;-74
2023/03/06 07:19:14;;;;;;;18.83;8.60;;;3.40;99.90;;;;;;5123841;27;20070;-74
2023/03/06 07:21:40;;;;;;;15.07;8.73;;;3.30;99.90;;;;;;5124698;27;20080;-74
2023/03/06 07:24:05;;;;;;;14.57;8.35;;;3.40;99.90;;;;;;5115133;27;20355;-73
2023/03/06 07:26:31;;;;;;;15.55;8.27;;;3.40;99.90;;;;;;5116264;27;20204;-74
2023/03/06 07:28:57;;;;;;;15.77;8.50;;;3.40;99.90;;;;;;5131093;27;20042;-74
2023/03/06 07:31:25;;;;;;;15.18;9.52;;;3.40;99.90;;;;;;5129564;27;20110;-74
2023/03/06 07:33:52;;;;;;;14.60;8.57;;;3.40;99.90;;;;;;5127022;27;20020;-74
2023/03/06 07:36:18;;;;;;;15.55;8.75;;;3.50;99.90;;;;;;5114720;27;20080;-74
2023/03/06 07:38:44;;;;;;;14.35;8.80;;;3.50;99.90;;;;;;5134272;27;20302;-72
2023/03/06 07:41:12;;;;;;;17.95;9.60;;;3.60;99.90;;;;;;5135587;27;20046;-72
2023/03/06 07:43:41;;;;;;;15.57;8.88;;;3.60;99.90;;;;;;5140435;27;20106;-74
2023/03/06 07:46:08;;;;;;;16.10;8.95;;;3.60;99.90;;;;;;5138493;27;20058;-72
2023/03/06 07:48:34;;;;;;;14.38;8.57;;;3.70;99.90;;;;;;5139048;27;20457;-76
2023/03/06 07:51:02;;;;;;;14.43;8.23;;;3.80;99.90;;;;;;5135057;27;20462;-75
2023/03/06 07:53:28;;;;;;;18.05;9.80;;;3.80;99.90;;;;;;5128274;27;20032;-73
2023/03/06 07:55:54;;;;;;;19.73;10.70;;;3.90;99.90;;;;;;5123785;27;20700;-75
2023/03/06 07:58:20;;;;;;;15.20;9.30;;;3.90;99.90;;;;;;5133513;27;20035;-73
2023/03/06 08:00:45;;;;;;;19.35;9.98;;;4.00;99.90;;;;;;5131865;27;20477;-73
2023/03/06 08:03:12;;;;;;;17.20;9.75;;;4.10;99.90;;;;;;5130484;27;20019;-71
2023/03/06 08:05:38;;;;;;;18.75;9.75;;;4.10;99.90;;;;;;5115489;27;20410;-72
2023/03/06 08:08:04;;;;;;;20.08;10.18;;;4.10;99.90;;;;;;5134447;27;20023;-74
2023/03/06 08:10:29;;;;;;;14.68;9.02;;;4.20;99.90;;;;;;5132950;27;20031;-73
2023/03/06 08:12:55;;;;;;;15.13;8.82;;;4.20;99.90;;;;;;5134252;27;20034;-75
2023/03/06 08:15:20;;;;;;;14.02;8.95;;;4.40;99.90;;;;;;5132459;27;20027;-75
2023/03/06 08:17:46;;;;;;;16.50;9.43;;;4.40;99.90;;;;;;5134240;27;20038;-73
2023/03/06 08:20:13;;;;;;;14.55;9.05;;;4.50;99.90;;;;;;5132573;27;20514;-74
2023/03/06 08:22:39;;;;;;;15.43;8.60;;;4.60;99.90;;;;;;5133588;27;20170;-74
2023/03/06 08:25:05;;;;;;;19.10;8.90;;;4.70;99.90;;;;;;5133520;27;20054;-75
2023/03/06 08:27:32;;;;;;;17.35;8.95;;;4.80;99.90;;;;;;5133226;27;20483;-76
2023/03/06 08:29:58;;;;;;;15.40;8.80;;;4.90;99.90;;;;;;5133679;27;20035;-74
2023/03/06 08:32:25;;;;;;;15.05;8.07;;;5.00;99.90;;;;;;5131165;27;20023;-75
2023/03/06 08:34:50;;;;;;;12.48;7.35;;;5.10;99.90;;;;;;5133313;27;20051;-75
2023/03/06 08:37:16;;;;;;;18.73;7.45;;;5.10;99.90;;;;;;5131849;27;20050;-75
2023/03/06 08:39:42;;;;;;;13.50;7.53;;;5.20;99.90;;;;;;5133000;27;20038;-75
2023/03/06 08:42:09;;;;;;;11.60;7.68;;;5.20;99.90;;;;;;5133371;27;20023;-73
2023/03/06 08:44:35;;;;;;;12.68;7.60;;;5.20;99.90;;;;;;5135478;27;21112;-75
2023/03/06 08:47:01;;;;;;;12.57;7.10;;;5.30;99.90;;;;;;5154003;27;20057;-74
2023/03/06 08:49:27;;;;;;;11.00;6.80;;;5.30;99.90;;;;;;5152887;27;20105;-75
2023/03/06 08:51:52;;;;;;;12.35;7.35;;;5.40;99.90;;;;;;5154542;27;20033;-74
2023/03/06 08:54:18;;;;;;;12.05;7.30;;;5.40;99.90;;;;;;5152575;27;20027;-75
2023/03/06 08:56:44;;;;;;;10.35;7.05;;;5.40;99.90;;;;;;5154192;27;20054;-74
2023/03/06 08:59:10;;;;;;;12.20;7.28;;;5.50;99.90;;;;;;5153263;27;20026;-72
2023/03/06 09:01:37;;;;;;;12.02;7.60;;;5.70;99.90;;;;;;5153614;27;20492;-74
2023/03/06 09:04:08;;;;;;;12.63;7.88;;;5.80;99.90;;;;;;5153908;27;20023;-75
2023/03/06 09:06:37;;;;;;;11.70;7.55;;;5.90;99.90;;;;;;5153225;27;20079;-76
2023/03/06 09:09:05;;;;;;;11.35;7.25;;;6.10;99.90;;;;;;5153791;27;20050;-75
2023/03/06 09:11:31;;;;;;;11.65;7.10;;;6.20;99.90;;;;;;5152517;27;20457;-74
2023/03/06 09:13:57;;;;;;;12.50;7.25;;;6.40;99.90;;;;;;5153860;27;20029;-75
2023/03/06 09:16:24;;;;;;;12.35;6.80;;;6.50;99.90;;;;;;5152611;27;20052;-75
2023/03/06 09:18:51;;;;;;;12.20;7.05;;;6.50;99.90;;;;;;5153480;27;20037;-74
2023/03/06 09:21:17;;;;;;;11.90;7.65;;;6.50;99.90;;;;;;5151938;27;20383;-74
2023/03/06 09:23:44;;;;;;;12.57;6.40;;;6.50;99.90;;;;;;5153303;27;20019;-75
2023/03/06 09:26:10;;;;;;;9.48;6.43;;;6.40;99.90;;;;;;5152667;27;20022;-73
2023/03/06 09:28:37;;;;;;;14.52;7.97;;;6.30;99.90;;;;;;5153594;27;20379;-74
2023/03/06 09:31:18;;;;;;;13.20;7.25;;;6.30;99.90;;;;;;5145789;27;20037;-74
2023/03/06 09:33:45;;;;;;;12.48;7.47;;;6.20;99.90;;;;;;5153516;27;20014;-74
2023/03/06 09:36:19;;;;;;;11.05;6.28;;;6.10;99.90;;;;;;5152100;27;20027;-73
2023/03/06 09:38:47;;;;;;;10.90;7.10;;;6.00;99.90;;;;;;5153120;27;20060;-73
2023/03/06 09:41:21;;;;;;;11.32;6.93;;;6.00;99.90;;;;;;5151642;27;20026;-74
2023/03/06 09:43:49;;;;;;;10.95;7.00;;;6.00;99.90;;;;;;5152837;27;20033;-74
2023/03/06 09:46:31;;;;;;;13.23;6.43;;;5.90;99.90;;;;;;5151340;27;20551;-74
2023/03/06 09:49:09;;;;;;;10.15;6.30;;;5.90;99.90;;;;;;5152649;27;20026;-74
2023/03/06 09:51:44;;;;;;;10.02;6.38;;;5.90;99.90;;;;;;5150992;27;20034;-75
2023/03/06 09:54:14;;;;;;;10.68;6.40;;;6.00;99.90;;;;;;5152673;27;20094;-72
2023/03/06 09:56:48;;;;;;;10.25;6.93;;;6.10;99.90;;;;;;5150897;27;20057;-74
2023/03/06 09:59:20;;;;;;;11.95;6.85;;;6.10;99.90;;;;;;5129811;27;20031;-74
2023/03/06 10:01:57;;;;;;;9.93;6.22;;;6.10;99.90;;;;;;5152566;27;20382;-74
2023/03/06 10:04:36;;;;;;;11.07;7.28;;;6.10;99.90;;;;;;5146275;27;20023;-75
2023/03/06 10:07:25;;;;;;;11.93;6.40;;;6.10;99.90;;;;;;5145532;27;20071;-75
2023/03/06 10:10:03;;;;;;;9.13;6.57;;;6.10;99.90;;;;;;5152606;27;20071;-74
2023/03/06 10:12:42;;;;;;;11.02;7.10;;;6.10;99.90;;;;;;5147385;27;20686;-75
2023/03/06 10:15:29;;;;;;;11.30;6.90;;;6.10;99.90;;;;;;5137025;27;20076;-72
2023/03/06 10:17:56;;;;;;;10.63;6.57;;;6.20;99.90;;;;;;5134051;27;20045;-74
2023/03/06 10:20:39;;;;;;;10.52;6.63;;;6.30;99.90;;;;;;5151014;27;20035;-74
2023/03/06 10:23:20;;;;;;;15.38;6.93;;;6.30;99.90;;;;;;5152467;27;20027;-74
2023/03/06 10:26:00;;;;;;;11.00;7.18;;;6.20;99.90;;;;;;5152063;27;20030;-75
2023/03/06 10:28:51;;;;;;;11.02;6.63;;;6.20;99.90;;;;;;5151278;27;20034;-74
2023/03/06 10:31:22;;;;;;;9.73;6.60;;;6.20;99.90;;;;;;5137622;27;20038;-73
2023/03/06 10:33:50;;;;;;;11.00;6.93;;;6.10;99.90;;;;;;5152180;27;20023;-74
2023/03/06 10:36:18;;;;;;;11.35;6.60;;;6.10;99.90;;;;;;5150901;27;20388;-73
2023/03/06 10:38:47;;;;;;;14.48;6.80;;;6.00;99.90;;;;;;5152479;27;20410;-74
2023/03/06 10:41:12;;;;;;;8.32;5.68;;;6.00;99.90;;;;;;5151003;27;20031;-75
2023/03/06 10:44:03;;;;;;;19.17;6.68;;;6.00;99.90;;;;;;5152333;27;20026;-74
2023/03/06 10:46:35;;;;;;;10.55;6.85;;;5.90;99.90;;;;;;5150465;27;20049;-73
2023/03/06 10:49:09;;;;;;;9.63;6.20;;;5.90;99.90;;;;;;5152048;27;20023;-74
2023/03/06 10:51:35;;;;;;;10.63;6.72;;;6.00;99.90;;;;;;5151496;27;20014;-73
2023/03/06 10:54:18;;;;;;;9.77;6.72;;;6.00;99.90;;;;;;5152256;27;20526;-73
2023/03/06 10:56:45;;;;;;;9.60;6.47;;;6.00;99.90;;;;;;5152496;27;20019;-73
2023/03/06 10:59:16;;;;;;;9.57;6.22;;;6.00;99.90;;;;;;5150928;27;20042;-73
2023/03/06 11:02:22;;;;;;;12.45;7.35;;;6.00;99.90;;;;;;5155173;27;20015;-76
2023/03/06 11:04:58;;;;;;;11.15;6.53;;;6.00;99.90;;;;;;5160627;27;20034;-77
2023/03/06 11:07:26;;;;;;;11.13;6.70;;;5.90;99.90;;;;;;5158704;27;20109;-73
2023/03/06 11:09:57;;;;;;;12.05;6.78;;;6.00;99.90;;;;;;5163142;27;20033;-75
2023/03/06 11:12:41;;;;;;;9.38;6.50;;;6.20;99.90;;;;;;5160327;27;20372;-74
2023/03/06 11:15:23;;;;;;;12.65;6.93;;;6.30;99.90;;;;;;5154925;27;20019;-74
2023/03/06 11:17:54;;;;;;;13.00;6.80;;;6.50;99.90;;;;;;5156028;27;20484;-72
2023/03/06 11:20:21;;;;;;;11.48;6.78;;;6.50;99.90;;;;;;5154930;27;20035;-72
2023/03/06 11:23:07;;;;;;;9.80;6.65;;;6.70;99.90;;;;;;5152684;27;20023;-71
2023/03/06 11:25:39;;;;;;;13.52;6.38;;;6.70;99.90;;;;;;5155165;27;20019;-72
2023/03/06 11:28:41;;;;;;;13.15;6.72;;;6.70;99.90;;;;;;5155150;27;20031;-73
2023/03/06 11:31:19;;;;;;;9.98;6.88;;;6.90;99.90;;;;;;5154897;27;20027;-71
2023/03/06 11:33:57;;;;;;;11.63;7.03;;;7.00;99.90;;;;;;5155035;27;20047;-71
2023/03/06 11:36:46;;;;;;;10.98;6.65;;;7.10;99.90;;;;;;5154202;27;20025;-71
2023/03/06 11:39:35;;;;;;;8.88;6.65;;;7.20;99.90;;;;;;5154099;27;20022;-72
2023/03/06 11:42:22;;;;;;;14.95;6.53;;;7.10;99.70;;;;;;5155454;27;20049;-72
2023/03/06 11:44:51;;;;;;;10.20;6.85;;;7.20;99.70;;;;;;5154535;27;20054;-72
2023/03/06 11:47:41;;;;;;;11.70;7.53;;;7.20;99.80;;;;;;5154847;27;20365;-74
2023/03/06 11:50:17;;;;;;;11.15;7.15;;;7.30;99.60;;;;;;5154049;27;20779;-71
2023/03/06 11:52:58;;;;;;;14.80;7.07;;;7.30;99.40;;;;;;5155344;27;20042;-73
2023/03/06 11:55:39;;;;;;;10.55;6.88;;;7.50;99.50;;;;;;5154048;27;20022;-73
2023/03/06 11:58:35;;;;;;;11.27;6.78;;;7.70;98.70;;;;;;5141613;27;20050;-73
2023/03/06 12:01:19;;;;;;;11.10;6.90;;;7.80;98.50;;;;;;5154363;27;20035;-73
2023/03/06 12:04:20;;;;;;;13.13;7.38;;;7.90;98.30;;;;;;5155332;27;20033;-73
2023/03/06 12:06:55;;;;;;;11.93;7.53;;;8.10;97.50;;;;;;5155322;27;20490;-73
2023/03/06 12:09:40;;;;;;;14.43;7.30;;;8.00;97.00;;;;;;5153638;27;20026;-72
2023/03/06 12:12:38;;;;;;;9.73;6.15;;;8.00;97.00;;;;;;5136198;27;20043;-72
2023/03/06 12:15:18;;;;;;;9.85;6.90;;;8.00;96.80;;;;;;5151972;27;20476;-73
2023/03/06 12:18:02;;;;;;;;;;;8.00;97.00;;;;;;5154233;27;20080;-72
2023/03/06 12:21:12;;;;;;;12.55;7.45;;;8.10;96.50;;;;;;5153535;27;19907;-72
2023/03/06 12:24:02;;;;;;;12.48;7.57;;;8.20;96.40;;;;;;5089633;27;20042;-72
2023/03/06 12:26:37;;;;;;;;;;;8.30;96.20;;;;;;5152014;27;20030;-71
2023/03/06 12:29:12;;;;;;;14.07;7.13;;;8.40;96.40;;;;;;5146383;27;19934;-72
2023/03/06 12:32:02;;;;;;;10.25;6.97;;;8.30;99.90;;;;;;5115903;27;20470;-73
2023/03/06 12:34:48;;;;;;;10.60;6.93;;;8.50;99.90;;;;;;5146962;27;20465;-72
2023/03/06 12:37:13;;;;;;;12.02;6.70;;;8.20;99.90;;;;;;5137267;27;20107;-72
2023/03/06 12:39:55;;;;;;;10.77;6.95;;;8.20;99.90;;;;;;5154030;27;20110;-73
2023/03/06 12:42:38;;;;;;;13.02;7.25;;;7.90;99.90;;;;;;5153872;27;20097;-73
2023/03/06 12:45:28;;;;;;;10.73;6.35;;;7.80;99.90;;;;;;5153813;27;20504;-74
2023/03/06 12:47:55;;;;;;;8.27;5.55;;;7.80;99.90;;;;;;5154107;27;20019;-74
2023/03/06 12:50:27;;;;;;;13.20;6.93;;;7.80;99.90;;;;;;5145901;27;20035;-71
2023/03/06 12:52:55;;;;;;;10.60;6.90;;;7.80;99.90;;;;;;5154021;27;20082;-73
2023/03/06 12:55:21;;;;;;;10.40;6.60;;;7.70;99.90;;;;;;5152886;27;20023;-74